sensor_id;sensor_type;location;lat;lon;timestamp;pressure;altitude;pressure_sealevel;temperature;humidity
59073;BME280;44859;51.934;15.554;2023-07-31T00:02:04;99379.63;;;15.50;84.38
59073;BME280;44859;51.934;15.554;2023-07-31T00:04:32;99381.84;;;15.46;84.50
59073;BME280;44859;51.934;15.554;2023-07-31T00:07:28;99383.58;;;15.42;84.83
59073;BME280;44859;51.934;15.554;2023-07-31T00:10:07;99381.13;;;15.39;84.86
59073;BME280;44859;51.934;15.554;2023-07-31T00:13:12;99382.48;;;15.37;85.29
59073;BME280;44859;51.934;15.554;2023-07-31T00:15:40;99384.86;;;15.36;85.61
59073;BME280;44859;51.934;15.554;2023-07-31T00:18:10;99381.69;;;15.32;85.82
59073;BME280;44859;51.934;15.554;2023-07-31T00:20:41;99380.26;;;15.29;85.88
59073;BME280;44859;51.934;15.554;2023-07-31T00:23:23;99379.02;;;15.29;86.12
59073;BME280;44859;51.934;15.554;2023-07-31T00:25:51;99383.14;;;15.28;86.26
59073;BME280;44859;51.934;15.554;2023-07-31T00:28:29;99380.50;;;15.26;86.38
59073;BME280;44859;51.934;15.554;2023-07-31T00:31:10;99382.81;;;15.24;86.39
59073;BME280;44859;51.934;15.554;2023-07-31T00:33:58;99373.46;;;15.21;86.69
59073;BME280;44859;51.934;15.554;2023-07-31T00:36:41;99374.05;;;15.20;86.82
59073;BME280;44859;51.934;15.554;2023-07-31T00:39:51;99376.02;;;15.17;87.16
59073;BME280;44859;51.934;15.554;2023-07-31T00:43:15;99374.31;;;15.14;87.34
59073;BME280;44859;51.934;15.554;2023-07-31T00:45:44;99369.73;;;15.09;87.61
59073;BME280;44859;51.934;15.554;2023-07-31T00:48:15;99369.42;;;15.06;87.78
59073;BME280;44859;51.934;15.554;2023-07-31T00:50:51;99366.05;;;15.02;87.94
59073;BME280;44859;51.934;15.554;2023-07-31T00:53:43;99367.63;;;14.97;88.05
59073;BME280;44859;51.934;15.554;2023-07-31T00:59:49;99378.20;;;14.78;88.99
59073;BME280;44859;51.934;15.554;2023-07-31T01:02:17;99373.98;;;14.70;89.27
59073;BME280;44859;51.934;15.554;2023-07-31T01:04:45;99366.38;;;14.63;89.53
59073;BME280;44859;51.934;15.554;2023-07-31T01:12:05;99357.62;;;14.57;90.14
59073;BME280;44859;51.934;15.554;2023-07-31T01:14:50;99361.02;;;14.49;90.64
59073;BME280;44859;51.934;15.554;2023-07-31T01:17:30;99360.08;;;14.42;90.94
59073;BME280;44859;51.934;15.554;2023-07-31T01:20:18;99357.98;;;14.36;91.68
59073;BME280;44859;51.934;15.554;2023-07-31T01:23:56;99352.53;;;14.26;92.22
59073;BME280;44859;51.934;15.554;2023-07-31T01:26:36;99351.35;;;14.21;92.82
59073;BME280;44859;51.934;15.554;2023-07-31T01:33:22;99353.31;;;14.10;94.19
59073;BME280;44859;51.934;15.554;2023-07-31T01:36:04;99353.52;;;14.05;94.50
59073;BME280;44859;51.934;15.554;2023-07-31T01:38:37;99359.27;;;14.03;94.65
59073;BME280;44859;51.934;15.554;2023-07-31T01:41:08;99355.96;;;14.00;95.09
59073;BME280;44859;51.934;15.554;2023-07-31T01:43:48;99355.63;;;13.97;95.92
59073;BME280;44859;51.934;15.554;2023-07-31T01:46:20;99357.77;;;13.94;95.95
59073;BME280;44859;51.934;15.554;2023-07-31T01:48:52;99356.77;;;13.94;96.10
59073;BME280;44859;51.934;15.554;2023-07-31T01:51:24;99352.65;;;13.92;96.33
59073;BME280;44859;51.934;15.554;2023-07-31T01:53:58;99350.50;;;13.90;96.55
59073;BME280;44859;51.934;15.554;2023-07-31T01:56:49;99347.85;;;13.87;96.96
59073;BME280;44859;51.934;15.554;2023-07-31T01:59:16;99346.21;;;13.85;97.26
59073;BME280;44859;51.934;15.554;2023-07-31T02:01:54;99347.56;;;13.83;97.38
59073;BME280;44859;51.934;15.554;2023-07-31T02:04:36;99345.90;;;13.82;97.66
59073;BME280;44859;51.934;15.554;2023-07-31T02:07:09;99340.40;;;13.80;97.75
59073;BME280;44859;51.934;15.554;2023-07-31T02:09:46;99338.95;;;13.81;97.96
59073;BME280;44859;51.934;15.554;2023-07-31T02:12:27;99336.23;;;13.79;97.91
59073;BME280;44859;51.934;15.554;2023-07-31T02:15:07;99335.68;;;13.79;98.04
59073;BME280;44859;51.934;15.554;2023-07-31T02:18:18;99337.35;;;13.76;98.31
59073;BME280;44859;51.934;15.554;2023-07-31T02:20:51;99333.55;;;13.75;98.42
59073;BME280;44859;51.934;15.554;2023-07-31T02:23:20;99330.92;;;13.74;98.51
59073;BME280;44859;51.934;15.554;2023-07-31T02:26:06;99332.92;;;13.73;98.52
59073;BME280;44859;51.934;15.554;2023-07-31T02:28:40;99324.73;;;13.72;98.59
59073;BME280;44859;51.934;15.554;2023-07-31T02:31:09;99324.31;;;13.70;98.92
59073;BME280;44859;51.934;15.554;2023-07-31T02:40:55;99332.90;;;13.58;99.56
59073;BME280;44859;51.934;15.554;2023-07-31T02:47:16;99332.63;;;13.46;99.75
59073;BME280;44859;51.934;15.554;2023-07-31T02:50:30;99333.42;;;13.43;100.00
59073;BME280;44859;51.934;15.554;2023-07-31T02:53:32;99333.13;;;13.39;100.00
59073;BME280;44859;51.934;15.554;2023-07-31T02:56:24;99329.55;;;13.35;100.00
59073;BME280;44859;51.934;15.554;2023-07-31T02:58:59;99328.25;;;13.33;100.00
59073;BME280;44859;51.934;15.554;2023-07-31T03:01:45;99325.87;;;13.29;100.00
59073;BME280;44859;51.934;15.554;2023-07-31T03:04:19;99321.39;;;13.27;100.00
59073;BME280;44859;51.934;15.554;2023-07-31T03:06:59;99322.74;;;13.25;100.00
59073;BME280;44859;51.934;15.554;2023-07-31T03:09:33;99319.38;;;13.23;100.00
59073;BME280;44859;51.934;15.554;2023-07-31T03:12:27;99316.84;;;13.21;100.00
59073;BME280;44859;51.934;15.554;2023-07-31T03:15:04;99310.45;;;13.22;100.00
59073;BME280;44859;51.934;15.554;2023-07-31T03:17:32;99307.47;;;13.22;100.00
59073;BME280;44859;51.934;15.554;2023-07-31T03:20:59;99312.56;;;13.24;100.00
59073;BME280;44859;51.934;15.554;2023-07-31T03:23:32;99321.69;;;13.25;100.00
59073;BME280;44859;51.934;15.554;2023-07-31T03:26:06;99316.69;;;13.23;100.00
59073;BME280;44859;51.934;15.554;2023-07-31T03:28:38;99315.33;;;13.23;100.00
59073;BME280;44859;51.934;15.554;2023-07-31T03:31:14;99315.23;;;13.21;100.00
59073;BME280;44859;51.934;15.554;2023-07-31T03:37:31;99313.23;;;13.17;100.00
59073;BME280;44859;51.934;15.554;2023-07-31T03:44:00;99311.42;;;13.18;100.00
59073;BME280;44859;51.934;15.554;2023-07-31T03:46:55;99314.80;;;13.20;100.00
59073;BME280;44859;51.934;15.554;2023-07-31T03:49:50;99313.77;;;13.23;100.00
59073;BME280;44859;51.934;15.554;2023-07-31T03:56:16;99311.97;;;13.25;100.00
59073;BME280;44859;51.934;15.554;2023-07-31T03:59:08;99308.17;;;13.27;100.00
59073;BME280;44859;51.934;15.554;2023-07-31T04:02:31;99308.49;;;13.30;100.00
59073;BME280;44859;51.934;15.554;2023-07-31T04:06:25;99305.23;;;13.37;100.00
59073;BME280;44859;51.934;15.554;2023-07-31T04:08:53;99301.05;;;13.42;100.00
59073;BME280;44859;51.934;15.554;2023-07-31T04:11:42;99306.09;;;13.45;100.00
59073;BME280;44859;51.934;15.554;2023-07-31T04:14:17;99303.42;;;13.48;100.00
59073;BME280;44859;51.934;15.554;2023-07-31T04:17:19;99301.52;;;13.53;99.98
59073;BME280;44859;51.934;15.554;2023-07-31T04:23:00;99295.59;;;13.59;99.70
59073;BME280;44859;51.934;15.554;2023-07-31T04:25:52;99292.92;;;13.62;99.54
59073;BME280;44859;51.934;15.554;2023-07-31T04:28:47;99293.95;;;13.63;99.28
59073;BME280;44859;51.934;15.554;2023-07-31T04:31:57;99290.77;;;13.63;99.06
59073;BME280;44859;51.934;15.554;2023-07-31T04:34:55;99293.84;;;13.64;98.75
59073;BME280;44859;51.934;15.554;2023-07-31T04:44:10;99284.90;;;13.74;98.28
59073;BME280;44859;51.934;15.554;2023-07-31T04:50:25;99278.02;;;13.84;97.69
59073;BME280;44859;51.934;15.554;2023-07-31T04:54:18;99279.23;;;13.89;97.30
59073;BME280;44859;51.934;15.554;2023-07-31T05:03:11;99281.15;;;14.10;96.15
59073;BME280;44859;51.934;15.554;2023-07-31T05:06:18;99278.52;;;14.16;95.72
59073;BME280;44859;51.934;15.554;2023-07-31T05:09:21;99273.58;;;14.26;95.27
59073;BME280;44859;51.934;15.554;2023-07-31T05:12:34;99270.46;;;14.38;94.85
59073;BME280;44859;51.934;15.554;2023-07-31T05:15:47;99269.05;;;14.43;94.12
59073;BME280;44859;51.934;15.554;2023-07-31T05:21:54;99264.73;;;14.53;93.20
59073;BME280;44859;51.934;15.554;2023-07-31T05:24:29;99265.30;;;14.58;92.80
59073;BME280;44859;51.934;15.554;2023-07-31T05:31:10;99259.50;;;14.67;91.68
59073;BME280;44859;51.934;15.554;2023-07-31T05:37:57;99257.55;;;14.82;89.95
59073;BME280;44859;51.934;15.554;2023-07-31T05:40:25;99257.54;;;14.87;89.21
59073;BME280;44859;51.934;15.554;2023-07-31T05:43:02;99254.98;;;14.92;88.92
59073;BME280;44859;51.934;15.554;2023-07-31T05:45:36;99255.40;;;15.01;88.47
59073;BME280;44859;51.934;15.554;2023-07-31T05:48:11;99255.66;;;15.09;87.84
59073;BME280;44859;51.934;15.554;2023-07-31T05:50:43;99253.52;;;15.17;87.53
59073;BME280;44859;51.934;15.554;2023-07-31T05:53:11;99256.05;;;15.23;87.06
59073;BME280;44859;51.934;15.554;2023-07-31T05:55:39;99256.73;;;15.32;86.64
59073;BME280;44859;51.934;15.554;2023-07-31T05:58:09;99257.52;;;15.38;86.12
59073;BME280;44859;51.934;15.554;2023-07-31T12:53:43;99067.07;;;20.00;64.90
59073;BME280;44859;51.934;15.554;2023-07-31T15:16:26;98992.52;;;20.48;61.05
59073;BME280;44859;51.934;15.554;2023-07-31T15:18:56;98988.20;;;20.64;60.71
59073;BME280;44859;51.934;15.554;2023-07-31T15:21:47;98986.20;;;20.70;60.36
59073;BME280;44859;51.934;15.554;2023-07-31T15:24:20;98983.71;;;20.70;60.52
59073;BME280;44859;51.934;15.554;2023-07-31T15:26:48;98988.09;;;20.74;60.12
59073;BME280;44859;51.934;15.554;2023-07-31T15:29:25;98988.17;;;20.77;60.46
59073;BME280;44859;51.934;15.554;2023-07-31T15:32:00;98978.38;;;20.87;60.15
59073;BME280;44859;51.934;15.554;2023-07-31T15:34:27;98968.53;;;20.85;59.79
59073;BME280;44859;51.934;15.554;2023-07-31T15:36:55;98969.40;;;20.77;60.05
59073;BME280;44859;51.934;15.554;2023-07-31T15:39:25;98967.43;;;20.70;59.79
59073;BME280;44859;51.934;15.554;2023-07-31T15:41:53;98964.33;;;20.64;60.37
59073;BME280;44859;51.934;15.554;2023-07-31T15:44:22;98959.39;;;20.63;60.73
59073;BME280;44859;51.934;15.554;2023-07-31T15:47:13;98957.86;;;20.64;60.89
59073;BME280;44859;51.934;15.554;2023-07-31T15:49:49;98956.63;;;20.62;60.47
59073;BME280;44859;51.934;15.554;2023-07-31T15:52:17;98958.33;;;20.58;60.60
59073;BME280;44859;51.934;15.554;2023-07-31T15:55:04;98950.41;;;20.58;60.91
59073;BME280;44859;51.934;15.554;2023-07-31T15:57:39;98953.55;;;20.63;60.89
59073;BME280;44859;51.934;15.554;2023-07-31T16:00:09;98954.08;;;20.63;61.04
59073;BME280;44859;51.934;15.554;2023-07-31T16:03:32;98953.34;;;20.59;61.08
59073;BME280;44859;51.934;15.554;2023-07-31T16:06:03;98951.45;;;20.56;61.27
59073;BME280;44859;51.934;15.554;2023-07-31T16:09:18;98958.02;;;20.51;61.22
59073;BME280;44859;51.934;15.554;2023-07-31T16:12:19;98956.66;;;20.48;61.58
59073;BME280;44859;51.934;15.554;2023-07-31T16:15:13;98957.02;;;20.48;61.75
59073;BME280;44859;51.934;15.554;2023-07-31T16:17:40;98957.17;;;20.41;62.00
59073;BME280;44859;51.934;15.554;2023-07-31T16:20:13;98954.91;;;20.30;62.07
59073;BME280;44859;51.934;15.554;2023-07-31T16:22:50;98950.53;;;20.24;62.35
59073;BME280;44859;51.934;15.554;2023-07-31T16:25:31;98951.94;;;20.21;62.62
59073;BME280;44859;51.934;15.554;2023-07-31T16:27:58;98951.41;;;20.21;62.68
59073;BME280;44859;51.934;15.554;2023-07-31T16:30:29;98948.05;;;20.21;62.96
59073;BME280;44859;51.934;15.554;2023-07-31T16:32:57;98943.19;;;20.21;63.24
59073;BME280;44859;51.934;15.554;2023-07-31T16:35:29;98944.56;;;20.22;63.17
59073;BME280;44859;51.934;15.554;2023-07-31T16:41:50;98940.25;;;20.22;63.46
59073;BME280;44859;51.934;15.554;2023-07-31T16:45:15;98940.54;;;20.24;63.85
59073;BME280;44859;51.934;15.554;2023-07-31T16:52:00;98933.29;;;20.10;63.93
59073;BME280;44859;51.934;15.554;2023-07-31T16:54:49;98932.66;;;20.05;64.15
59073;BME280;44859;51.934;15.554;2023-07-31T16:57:52;98929.87;;;20.03;64.20
59073;BME280;44859;51.934;15.554;2023-07-31T17:00:22;98931.27;;;20.02;64.40
59073;BME280;44859;51.934;15.554;2023-07-31T17:02:55;98930.41;;;20.03;64.49
59073;BME280;44859;51.934;15.554;2023-07-31T17:05:23;98928.07;;;20.05;64.57
59073;BME280;44859;51.934;15.554;2023-07-31T17:08:07;98928.98;;;20.05;64.72
59073;BME280;44859;51.934;15.554;2023-07-31T17:14:00;98927.89;;;20.00;64.88
59073;BME280;44859;51.934;15.554;2023-07-31T17:16:42;98929.96;;;19.97;64.88
59073;BME280;44859;51.934;15.554;2023-07-31T17:22:46;98935.66;;;19.90;65.27
59073;BME280;44859;51.934;15.554;2023-07-31T17:25:28;98943.90;;;19.88;65.50
59073;BME280;44859;51.934;15.554;2023-07-31T17:28:07;98944.04;;;19.85;65.42
59073;BME280;44859;51.934;15.554;2023-07-31T17:30:35;98948.33;;;19.83;65.54
59073;BME280;44859;51.934;15.554;2023-07-31T17:33:06;98947.98;;;19.81;65.59
59073;BME280;44859;51.934;15.554;2023-07-31T17:35:34;98942.74;;;19.78;65.79
59073;BME280;44859;51.934;15.554;2023-07-31T17:38:06;98936.17;;;19.75;66.03
59073;BME280;44859;51.934;15.554;2023-07-31T17:40:45;98936.31;;;19.74;66.08
59073;BME280;44859;51.934;15.554;2023-07-31T17:43:23;98932.38;;;19.72;66.08
59073;BME280;44859;51.934;15.554;2023-07-31T17:48:45;98922.02;;;19.71;66.21
59073;BME280;44859;51.934;15.554;2023-07-31T17:51:23;98915.73;;;19.70;66.14
59073;BME280;44859;51.934;15.554;2023-07-31T17:53:50;98914.52;;;19.68;66.13
59073;BME280;44859;51.934;15.554;2023-07-31T17:56:35;98911.43;;;19.67;66.15
59073;BME280;44859;51.934;15.554;2023-07-31T17:59:06;98911.79;;;19.65;66.29
59073;BME280;44859;51.934;15.554;2023-07-31T18:01:41;98906.26;;;19.63;66.43
59073;BME280;44859;51.934;15.554;2023-07-31T18:04:13;98903.02;;;19.60;66.71
59073;BME280;44859;51.934;15.554;2023-07-31T18:06:51;98900.37;;;19.58;66.63
59073;BME280;44859;51.934;15.554;2023-07-31T18:09:21;98896.25;;;19.56;66.86
59073;BME280;44859;51.934;15.554;2023-07-31T18:11:48;98893.80;;;19.54;66.73
59073;BME280;44859;51.934;15.554;2023-07-31T18:14:16;98892.22;;;19.52;66.96
59073;BME280;44859;51.934;15.554;2023-07-31T18:16:45;98887.89;;;19.51;67.07
59073;BME280;44859;51.934;15.554;2023-07-31T18:19:21;98888.42;;;19.49;67.03
59073;BME280;44859;51.934;15.554;2023-07-31T18:25:25;98894.97;;;19.43;67.49
59073;BME280;44859;51.934;15.554;2023-07-31T18:28:03;98888.86;;;19.39;67.74
59073;BME280;44859;51.934;15.554;2023-07-31T18:30:30;98890.79;;;19.38;68.12
59073;BME280;44859;51.934;15.554;2023-07-31T18:33:26;98895.72;;;19.35;67.96
59073;BME280;44859;51.934;15.554;2023-07-31T18:35:56;98891.02;;;19.32;68.09
59073;BME280;44859;51.934;15.554;2023-07-31T18:38:32;98887.75;;;19.31;68.09
59073;BME280;44859;51.934;15.554;2023-07-31T18:42:03;98882.70;;;19.30;68.33
59073;BME280;44859;51.934;15.554;2023-07-31T18:45:16;98878.29;;;19.28;68.62
59073;BME280;44859;51.934;15.554;2023-07-31T18:47:55;98876.67;;;19.26;68.52
59073;BME280;44859;51.934;15.554;2023-07-31T18:57:03;98874.65;;;19.17;69.08
59073;BME280;44859;51.934;15.554;2023-07-31T19:03:06;98873.20;;;19.16;69.19
59073;BME280;44859;51.934;15.554;2023-07-31T19:06:03;98871.36;;;19.15;69.32
59073;BME280;44859;51.934;15.554;2023-07-31T19:13:26;98874.63;;;19.07;69.58
59073;BME280;44859;51.934;15.554;2023-07-31T19:20:07;98880.33;;;18.94;70.40
59073;BME280;44859;51.934;15.554;2023-07-31T19:22:39;98881.20;;;18.92;70.40
59073;BME280;44859;51.934;15.554;2023-07-31T19:25:13;98880.39;;;18.90;70.74
59073;BME280;44859;51.934;15.554;2023-07-31T19:33:45;98872.81;;;18.89;69.96
59073;BME280;44859;51.934;15.554;2023-07-31T19:44:53;98864.73;;;18.97;68.88
59073;BME280;44859;51.934;15.554;2023-07-31T19:47:20;98862.30;;;18.96;69.04
59073;BME280;44859;51.934;15.554;2023-07-31T19:49:50;98860.78;;;18.98;68.63
59073;BME280;44859;51.934;15.554;2023-07-31T19:52:59;98860.60;;;18.99;68.38
59073;BME280;44859;51.934;15.554;2023-07-31T19:55:45;98859.86;;;18.99;68.27
59073;BME280;44859;51.934;15.554;2023-07-31T19:58:50;98861.46;;;19.00;68.20
59073;BME280;44859;51.934;15.554;2023-07-31T20:01:42;98859.96;;;18.97;68.01
59073;BME280;44859;51.934;15.554;2023-07-31T20:04:30;98859.92;;;18.95;68.00
59073;BME280;44859;51.934;15.554;2023-07-31T20:07:59;98858.20;;;18.93;68.21
59073;BME280;44859;51.934;15.554;2023-07-31T20:10:26;98858.23;;;18.93;67.99
59073;BME280;44859;51.934;15.554;2023-07-31T20:13:24;98853.46;;;18.92;68.05
59073;BME280;44859;51.934;15.554;2023-07-31T20:16:34;98850.30;;;18.92;68.21
59073;BME280;44859;51.934;15.554;2023-07-31T20:19:36;98846.20;;;18.90;68.27
59073;BME280;44859;51.934;15.554;2023-07-31T20:22:45;98843.32;;;18.89;68.19
59073;BME280;44859;51.934;15.554;2023-07-31T20:25:35;98839.88;;;18.86;68.42
59073;BME280;44859;51.934;15.554;2023-07-31T20:28:22;98830.09;;;18.84;68.39
59073;BME280;44859;51.934;15.554;2023-07-31T20:31:10;98825.80;;;18.81;68.64
59073;BME280;44859;51.934;15.554;2023-07-31T20:33:51;98819.45;;;18.78;68.71
59073;BME280;44859;51.934;15.554;2023-07-31T20:36:19;98816.85;;;18.77;68.74
59073;BME280;44859;51.934;15.554;2023-07-31T20:39:20;98817.69;;;18.74;68.81
59073;BME280;44859;51.934;15.554;2023-07-31T20:41:47;98817.23;;;18.72;68.88
59073;BME280;44859;51.934;15.554;2023-07-31T20:47:36;98809.56;;;18.64;69.11
59073;BME280;44859;51.934;15.554;2023-07-31T20:50:15;98806.64;;;18.62;69.31
59073;BME280;44859;51.934;15.554;2023-07-31T20:53:06;98802.71;;;18.58;69.36
59073;BME280;44859;51.934;15.554;2023-07-31T20:55:54;98801.16;;;18.56;69.26
59073;BME280;44859;51.934;15.554;2023-07-31T20:59:11;98792.83;;;18.54;69.52
59073;BME280;44859;51.934;15.554;2023-07-31T21:02:18;98787.69;;;18.52;69.62
59073;BME280;44859;51.934;15.554;2023-07-31T21:04:49;98782.80;;;18.51;69.71
59073;BME280;44859;51.934;15.554;2023-07-31T21:07:19;98780.55;;;18.48;69.71
59073;BME280;44859;51.934;15.554;2023-07-31T21:10:09;98774.07;;;18.47;69.76
59073;BME280;44859;51.934;15.554;2023-07-31T21:12:58;98775.69;;;18.45;69.94
59073;BME280;44859;51.934;15.554;2023-07-31T21:15:59;98769.80;;;18.44;69.83
59073;BME280;44859;51.934;15.554;2023-07-31T21:22:51;98759.80;;;18.37;70.17
59073;BME280;44859;51.934;15.554;2023-07-31T21:28:57;98751.42;;;18.36;70.23
59073;BME280;44859;51.934;15.554;2023-07-31T21:31:59;98748.48;;;18.35;70.38
59073;BME280;44859;51.934;15.554;2023-07-31T21:34:50;98744.17;;;18.35;70.29
59073;BME280;44859;51.934;15.554;2023-07-31T21:37:54;98743.90;;;18.34;70.46
59073;BME280;44859;51.934;15.554;2023-07-31T21:40:47;98741.66;;;18.33;70.45
59073;BME280;44859;51.934;15.554;2023-07-31T21:43:15;98735.20;;;18.32;70.09
59073;BME280;44859;51.934;15.554;2023-07-31T21:46:45;98734.26;;;18.31;70.36
59073;BME280;44859;51.934;15.554;2023-07-31T21:49:30;98734.96;;;18.29;70.26
59073;BME280;44859;51.934;15.554;2023-07-31T21:56:29;98718.60;;;18.26;70.30
59073;BME280;44859;51.934;15.554;2023-07-31T21:59:58;98715.70;;;18.23;70.42
59073;BME280;44859;51.934;15.554;2023-07-31T22:03:06;98715.55;;;18.22;70.34
59073;BME280;44859;51.934;15.554;2023-07-31T22:09:49;98716.40;;;18.21;70.31
59073;BME280;44859;51.934;15.554;2023-07-31T22:13:15;98714.14;;;18.20;70.20
59073;BME280;44859;51.934;15.554;2023-07-31T22:19:54;98711.58;;;18.18;70.39
59073;BME280;44859;51.934;15.554;2023-07-31T22:23:04;98708.19;;;18.16;70.46
59073;BME280;44859;51.934;15.554;2023-07-31T22:26:25;98708.84;;;18.17;70.51
59073;BME280;44859;51.934;15.554;2023-07-31T22:29:14;98700.70;;;18.16;70.42
59073;BME280;44859;51.934;15.554;2023-07-31T22:36:06;98687.14;;;18.17;70.46
59073;BME280;44859;51.934;15.554;2023-07-31T22:39:15;98686.08;;;18.17;70.53
59073;BME280;44859;51.934;15.554;2023-07-31T22:42:56;98681.79;;;18.15;70.41
59073;BME280;44859;51.934;15.554;2023-07-31T22:46:12;98674.23;;;18.14;70.50
59073;BME280;44859;51.934;15.554;2023-07-31T22:48:49;98668.08;;;18.12;70.44
59073;BME280;44859;51.934;15.554;2023-07-31T22:52:13;98672.02;;;18.10;70.57
59073;BME280;44859;51.934;15.554;2023-07-31T22:55:35;98676.15;;;18.07;70.51
59073;BME280;44859;51.934;15.554;2023-07-31T22:58:37;98676.99;;;18.06;70.72
59073;BME280;44859;51.934;15.554;2023-07-31T23:05:22;98675.60;;;18.02;70.73
59073;BME280;44859;51.934;15.554;2023-07-31T23:09:13;98668.82;;;18.01;70.81
59073;BME280;44859;51.934;15.554;2023-07-31T23:11:57;98666.18;;;18.00;70.60
59073;BME280;44859;51.934;15.554;2023-07-31T23:18:53;98662.92;;;18.01;70.73
59073;BME280;44859;51.934;15.554;2023-07-31T23:28:55;98650.58;;;17.98;71.13
59073;BME280;44859;51.934;15.554;2023-07-31T23:32:07;98642.27;;;17.94;71.01
59073;BME280;44859;51.934;15.554;2023-07-31T23:35:46;98632.89;;;17.92;71.10
59073;BME280;44859;51.934;15.554;2023-07-31T23:39:07;98628.69;;;17.91;71.29
59073;BME280;44859;51.934;15.554;2023-07-31T23:41:56;98626.97;;;17.91;71.17
59073;BME280;44859;51.934;15.554;2023-07-31T23:45:28;98623.99;;;17.90;71.47
59073;BME280;44859;51.934;15.554;2023-07-31T23:48:01;98617.71;;;17.89;71.37
59073;BME280;44859;51.934;15.554;2023-07-31T23:51:13;98615.74;;;17.87;71.61
59073;BME280;44859;51.934;15.554;2023-07-31T23:57:11;98607.08;;;17.82;71.63
